Time;durP1;ratioP1;P1;durP2;ratioP2;P2;SDS_P1;SDS_P2;PMS_P1;PMS_P2;Temp;Humidity;BMP_temperature;BMP_pressure;BME280_temperature;BME280_humidity;BME280_pressure;Samples;Min_cycle;Max_cycle;Signal;HPM_P1;HPM_P2
2022/06/26 00:02:21;;;;;;;8.32;2.65;;;;;;;;;;6152617;28;20175;-76
2022/06/26 00:05:22;;;;;;;6.13;2.30;;;;;;;;;;6158315;28;20235;-76
2022/06/26 00:08:25;;;;;;;6.85;2.67;;;;;;;;;;6155026;28;20478;-76
2022/06/26 00:11:27;;;;;;;4.82;1.88;;;;;;;;;;6157586;28;20047;-76
2022/06/26 00:14:30;;;;;;;4.50;1.95;;;;;;;;;;6156828;28;20047;-76
2022/06/26 00:17:31;;;;;;;6.43;1.75;;;;;;;;;;6159106;28;20274;-76
2022/06/26 00:20:33;;;;;;;3.28;1.70;;;;;;;;;;6185269;28;20054;-76
2022/06/26 00:23:35;;;;;;;4.68;1.83;;;;;;;;;;6184762;28;20101;-75
2022/06/26 00:26:37;;;;;;;4.90;1.88;;;;;;;;;;6182600;28;20121;-76
2022/06/26 00:29:40;;;;;;;3.30;1.80;;;;;;;;;;6184180;28;20471;-76
2022/06/26 00:32:41;;;;;;;3.90;1.70;;;;;;;;;;6182520;28;20050;-76
2022/06/26 00:35:43;;;;;;;4.35;2.20;;;;;;;;;;6183034;28;20061;-76
2022/06/26 00:38:45;;;;;;;4.00;1.83;;;;;;;;;;6182773;28;20050;-76
2022/06/26 00:41:46;;;;;;;3.60;1.33;;;;;;;;;;6185222;28;20073;-82
2022/06/26 00:44:52;;;;;;;5.07;1.67;;;;;;;;;;6184861;28;20046;-76
2022/06/26 00:47:53;;;;;;;5.05;1.80;;;;;;;;;;6184522;28;20322;-76
2022/06/26 00:50:55;;;;;;;5.78;1.75;;;;;;;;;;6181381;28;20057;-77
2022/06/26 00:53:57;;;;;;;4.80;1.42;;;;;;;;;;6184196;28;20066;-76
2022/06/26 00:56:59;;;;;;;3.95;1.45;;;;;;;;;;6183229;28;20050;-76
2022/06/26 01:00:03;;;;;;;5.25;1.75;;;;;;;;;;6186700;28;20164;-76
2022/06/26 01:03:05;;;;;;;3.85;1.60;;;;;;;;;;6184750;28;20431;-76
2022/06/26 01:06:07;;;;;;;3.35;1.83;;;;;;;;;;6180087;28;20054;-77
2022/06/26 01:09:10;;;;;;;4.23;1.90;;;;;;;;;;6184025;28;20237;-77
2022/06/26 01:12:12;;;;;;;;;;;;;;;;;;6189045;28;20086;-76
2022/06/26 01:15:15;;;;;;;4.70;1.55;;;;;;;;;;6183458;28;20019;-76
2022/06/26 01:18:17;;;;;;;;;;;;;;;;;;6183618;28;20110;-76
2022/06/26 01:21:19;;;;;;;4.07;1.50;;;;;;;;;;6182478;28;19972;-76
2022/06/26 01:24:23;;;;;;;2.85;1.35;;;;;;;;;;6186438;28;20092;-76
2022/06/26 01:27:24;;;;;;;;;;;;;;;;;;6184405;28;20054;-76
2022/06/26 01:30:26;;;;;;;4.45;1.60;;;;;;;;;;6185309;28;19918;-77
2022/06/26 01:33:28;;;;;;;3.47;1.50;;;;;;;;;;6182312;28;20271;-76
2022/06/26 01:36:29;;;;;;;5.82;1.50;;;;;;;;;;6180690;28;20061;-76
2022/06/26 01:39:32;;;;;;;3.97;1.50;;;;;;;;;;6179505;28;20054;-76
2022/06/26 01:42:34;;;;;;;3.88;1.80;;;;;;;;;;6181337;28;20090;-77
2022/06/26 01:45:42;;;;;;;3.08;1.60;;;;;;;;;;6184753;28;20050;-76
2022/06/26 01:48:43;;;;;;;5.38;1.63;;;;;;;;;;6177049;28;20557;-76
2022/06/26 01:51:45;;;;;;;5.65;1.90;;;;;;;;;;6183190;28;20051;-76
2022/06/26 01:54:48;;;;;;;2.47;1.65;;;;;;;;;;6183510;28;20121;-76
2022/06/26 01:57:50;;;;;;;5.53;1.90;;;;;;;;;;6175390;28;20051;-75
2022/06/26 02:00:53;;;;;;;5.50;1.70;;;;;;;;;;6184231;28;20125;-76
2022/06/26 02:03:55;;;;;;;5.25;1.65;;;;;;;;;;6181224;28;20114;-75
2022/06/26 02:06:57;;;;;;;4.28;1.70;;;;;;;;;;6180590;28;20047;-76
2022/06/26 02:13:37;;;;;;;5.53;1.90;;;;;;;;;;6181464;28;20042;-76
2022/06/26 02:16:39;;;;;;;4.53;1.60;;;;;;;;;;6172614;28;20593;-77
2022/06/26 02:19:41;;;;;;;5.10;1.70;;;;;;;;;;6184845;28;20117;-75
2022/06/26 02:22:42;;;;;;;2.72;1.40;;;;;;;;;;6178632;28;20305;-76
2022/06/26 02:25:46;;;;;;;3.45;1.75;;;;;;;;;;6183440;28;20043;-76
2022/06/26 02:28:49;;;;;;;4.03;1.50;;;;;;;;;;6178287;28;20047;-76
2022/06/26 02:31:51;;;;;;;2.07;1.50;;;;;;;;;;6186985;28;20077;-75
2022/06/26 02:34:52;;;;;;;2.53;1.33;;;;;;;;;;6184684;28;20852;-76
2022/06/26 02:37:55;;;;;;;5.30;2.17;;;;;;;;;;6188208;28;20046;-75
2022/06/26 02:40:58;;;;;;;2.83;1.83;;;;;;;;;;6185441;28;20050;-76
2022/06/26 02:44:00;;;;;;;4.18;1.60;;;;;;;;;;6181670;28;20105;-75
2022/06/26 02:47:01;;;;;;;2.60;1.52;;;;;;;;;;6182434;28;20046;-76
2022/06/26 02:50:03;;;;;;;7.53;1.95;;;;;;;;;;6189045;28;20046;-76
2022/06/26 02:53:06;;;;;;;6.03;1.67;;;;;;;;;;6185253;28;20057;-76
2022/06/26 02:56:09;;;;;;;8.13;1.80;;;;;;;;;;6184778;28;20054;-76
2022/06/26 02:59:11;;;;;;;3.63;1.83;;;;;;;;;;6183347;28;20042;-76
2022/06/26 03:02:12;;;;;;;4.47;1.77;;;;;;;;;;6185666;28;20110;-76
2022/06/26 03:05:14;;;;;;;5.60;2.97;;;;;;;;;;6183677;28;20062;-76
2022/06/26 03:08:16;;;;;;;4.07;1.90;;;;;;;;;;6185237;28;20325;-77
2022/06/26 03:11:19;;;;;;;4.45;2.15;;;;;;;;;;6184536;28;20076;-76
2022/06/26 03:14:20;;;;;;;6.30;2.08;;;;;;;;;;6185512;28;20061;-76
2022/06/26 03:17:22;;;;;;;4.03;1.52;;;;;;;;;;6184540;28;20053;-76
2022/06/26 03:20:24;;;;;;;5.30;2.05;;;;;;;;;;6187781;28;20043;-76
2022/06/26 03:24:01;;;;;;;2.97;1.50;;;;;;;;;;6185468;28;20054;-76
2022/06/26 03:26:49;;;;;;;4.40;1.92;;;;;;;;;;6185580;28;20120;-76
2022/06/26 03:29:50;;;;;;;6.15;1.88;;;;;;;;;;6186484;28;20050;-76
2022/06/26 03:32:52;;;;;;;5.25;2.20;;;;;;;;;;6184200;28;20057;-76
2022/06/26 03:35:54;;;;;;;4.35;1.98;;;;;;;;;;6188402;28;20050;-76
2022/06/26 03:38:56;;;;;;;3.35;2.10;;;;;;;;;;6182837;28;20061;-76
2022/06/26 03:42:01;;;;;;;3.60;1.85;;;;;;;;;;6186205;28;20042;-76
2022/06/26 03:45:03;;;;;;;3.50;1.75;;;;;;;;;;6181304;28;21255;-76
2022/06/26 03:48:05;;;;;;;5.47;1.92;;;;;;;;;;6156702;28;20348;-76
2022/06/26 03:51:06;;;;;;;2.33;1.73;;;;;;;;;;6157833;28;20360;-77
2022/06/26 03:54:09;;;;;;;4.68;1.80;;;;;;;;;;6162147;28;20050;-76
2022/06/26 03:57:11;;;;;;;4.05;1.70;;;;;;;;;;6160525;28;20115;-76
2022/06/26 04:00:14;;;;;;;4.30;2.20;;;;;;;;;;6164863;28;20376;-75
2022/06/26 04:03:16;;;;;;;3.97;1.70;;;;;;;;;;6171166;28;20047;-75
2022/06/26 04:06:18;;;;;;;2.92;2.00;;;;;;;;;;6180768;28;20053;-75
2022/06/26 04:09:20;;;;;;;5.03;2.10;;;;;;;;;;6184191;28;20314;-75
2022/06/26 04:12:23;;;;;;;3.25;2.22;;;;;;;;;;6183531;28;20058;-75
2022/06/26 04:15:25;;;;;;;8.45;2.58;;;;;;;;;;6181869;28;20047;-75
2022/06/26 04:18:26;;;;;;;7.30;2.00;;;;;;;;;;6182694;28;20086;-76
2022/06/26 04:21:28;;;;;;;4.22;2.20;;;;;;;;;;6182502;28;20051;-76
2022/06/26 04:24:30;;;;;;;7.50;2.47;;;;;;;;;;6180757;28;20046;-76
2022/06/26 04:27:33;;;;;;;5.70;1.95;;;;;;;;;;6182940;28;20314;-76
2022/06/26 04:30:35;;;;;;;4.00;1.90;;;;;;;;;;6181499;28;20059;-76
2022/06/26 04:33:37;;;;;;;5.68;2.40;;;;;;;;;;6187815;28;20066;-76
2022/06/26 04:36:38;;;;;;;7.57;2.25;;;;;;;;;;6185417;28;20070;-76
2022/06/26 04:39:40;;;;;;;6.95;2.70;;;;;;;;;;6187033;28;20055;-76
2022/06/26 04:42:44;;;;;;;8.80;3.22;;;;;;;;;;6183652;28;20051;-75
2022/06/26 04:45:45;;;;;;;5.32;2.30;;;;;;;;;;6180349;28;20062;-76
2022/06/26 04:48:51;;;;;;;4.88;2.72;;;;;;;;;;6184139;28;20340;-77
2022/06/26 04:51:58;;;;;;;6.75;2.58;;;;;;;;;;6180498;28;20047;-75
2022/06/26 04:55:00;;;;;;;6.40;2.05;;;;;;;;;;6187623;28;20425;-77
2022/06/26 04:58:03;;;;;;;5.45;2.08;;;;;;;;;;6177953;28;20043;-77
2022/06/26 05:01:05;;;;;;;5.18;2.00;;;;;;;;;;6181575;28;20055;-76
2022/06/26 05:04:06;;;;;;;4.03;2.13;;;;;;;;;;6186918;28;20350;-77
2022/06/26 05:07:08;;;;;;;4.57;2.30;;;;;;;;;;6180936;28;20058;-76
2022/06/26 05:10:10;;;;;;;7.90;2.15;;;;;;;;;;6187699;28;20211;-76
2022/06/26 05:13:13;;;;;;;6.15;2.15;;;;;;;;;;6181408;28;20058;-76
2022/06/26 05:16:15;;;;;;;6.80;2.75;;;;;;;;;;6181220;28;20059;-76
2022/06/26 05:19:16;;;;;;;6.43;2.15;;;;;;;;;;6174970;28;20058;-76
2022/06/26 05:22:19;;;;;;;7.57;2.83;;;;;;;;;;6185737;28;20226;-77
2022/06/26 05:25:21;;;;;;;10.88;2.78;;;;;;;;;;6179175;28;20050;-76
2022/06/26 05:28:24;;;;;;;6.30;2.55;;;;;;;;;;6179800;28;20515;-76
2022/06/26 05:31:26;;;;;;;22.40;4.13;;;;;;;;;;6184799;28;20046;-76
2022/06/26 05:34:27;;;;;;;5.25;2.53;;;;;;;;;;6182668;28;20062;-76
2022/06/26 05:37:29;;;;;;;6.20;2.58;;;;;;;;;;6175898;28;20389;-76
2022/06/26 05:40:31;;;;;;;6.60;2.70;;;;;;;;;;6182781;28;20060;-76
2022/06/26 05:43:34;;;;;;;3.95;2.00;;;;;;;;;;6181136;28;20047;-76
2022/06/26 05:46:36;;;;;;;4.68;2.38;;;;;;;;;;6184351;28;20062;-76
2022/06/26 05:49:40;;;;;;;5.30;2.28;;;;;;;;;;6182758;28;20348;-76
2022/06/26 05:52:41;;;;;;;6.03;2.22;;;;;;;;;;6181039;28;20404;-75
2022/06/26 05:55:43;;;;;;;4.28;2.28;;;;;;;;;;6178237;28;20061;-75
2022/06/26 05:58:48;;;;;;;4.82;2.25;;;;;;;;;;6181785;28;20098;-76
2022/06/26 06:01:50;;;;;;;5.00;2.38;;;;;;;;;;6184370;28;20089;-75
2022/06/26 06:04:52;;;;;;;8.00;2.40;;;;;;;;;;6183416;28;20067;-76
2022/06/26 06:07:54;;;;;;;5.43;2.20;;;;;;;;;;6186545;28;20054;-76
2022/06/26 06:10:55;;;;;;;9.27;2.38;;;;;;;;;;6186202;28;20214;-76
2022/06/26 06:13:58;;;;;;;6.50;2.55;;;;;;;;;;6185461;28;20096;-76
2022/06/26 06:17:35;;;;;;;4.25;2.30;;;;;;;;;;6177726;28;20056;-76
2022/06/26 06:20:24;;;;;;;7.72;2.55;;;;;;;;;;6185473;28;20902;-76
2022/06/26 06:23:26;;;;;;;;;;;;;;;;;;6191202;28;20047;-75
2022/06/26 06:26:27;;;;;;;5.80;2.70;;;;;;;;;;6186080;28;20149;-75
2022/06/26 06:29:30;;;;;;;5.32;2.00;;;;;;;;;;6187224;28;20065;-76
2022/06/26 06:32:32;;;;;;;4.10;2.50;;;;;;;;;;6187911;28;20113;-81
2022/06/26 06:35:34;;;;;;;7.35;2.28;;;;;;;;;;6188962;28;20116;-82
2022/06/26 06:38:35;;;;;;;4.65;2.05;;;;;;;;;;6182894;28;20061;-81
2022/06/26 06:41:37;;;;;;;6.20;2.28;;;;;;;;;;6182895;28;20261;-80
2022/06/26 06:44:40;;;;;;;6.30;2.30;;;;;;;;;;6184567;28;20059;-81
2022/06/26 06:47:42;;;;;;;6.00;2.20;;;;;;;;;;6189035;28;21113;-78
2022/06/26 06:50:43;;;;;;;6.80;2.13;;;;;;;;;;6189688;28;20110;-77
2022/06/26 06:53:45;;;;;;;5.35;2.47;;;;;;;;;;6185149;28;20101;-76
2022/06/26 06:56:47;;;;;;;11.95;2.92;;;;;;;;;;6185055;28;20337;-84
2022/06/26 06:59:50;;;;;;;5.18;2.35;;;;;;;;;;6185232;28;20050;-78
2022/06/26 07:02:52;;;;;;;4.07;2.20;;;;;;;;;;6185822;28;20062;-78
2022/06/26 07:05:53;;;;;;;3.45;2.53;;;;;;;;;;6185273;28;20050;-78
2022/06/26 07:08:55;;;;;;;4.13;1.90;;;;;;;;;;6190122;28;20047;-80
2022/06/26 07:11:57;;;;;;;6.45;1.90;;;;;;;;;;6183564;28;20292;-79
2022/06/26 07:15:00;;;;;;;4.13;2.08;;;;;;;;;;6179863;28;20341;-79
2022/06/26 07:18:01;;;;;;;5.25;2.03;;;;;;;;;;6183958;28;20349;-81
2022/06/26 07:21:03;;;;;;;4.88;2.00;;;;;;;;;;6185031;28;20334;-78
2022/06/26 07:24:05;;;;;;;7.43;2.10;;;;;;;;;;6182993;28;20054;-82
2022/06/26 07:27:07;;;;;;;62.35;42.28;;;;;;;;;;6177495;28;20334;-82
2022/06/26 07:30:12;;;;;;;20.92;10.48;;;;;;;;;;6163840;28;20286;-82
2022/06/26 07:36:30;;;;;;;49.50;30.17;;;;;;;;;;6187138;28;20105;-80
2022/06/26 07:39:31;;;;;;;24.33;13.67;;;;;;;;;;6173775;28;20229;-80
2022/06/26 07:42:33;;;;;;;23.40;16.13;;;;;;;;;;6180933;28;20474;-83
2022/06/26 07:45:36;;;;;;;16.83;8.75;;;;;;;;;;6185197;28;20046;-79
2022/06/26 07:48:37;;;;;;;;;;;;;;;;;;6186288;28;20337;-78
2022/06/26 07:51:39;;;;;;;4.75;2.13;;;;;;;;;;6184448;28;19918;-77
2022/06/26 07:54:41;;;;;;;5.68;1.83;;;;;;;;;;6182208;28;20064;-78
2022/06/26 07:57:43;;;;;;;7.57;1.50;;;;;;;;;;6183567;28;20065;-78
2022/06/26 08:00:46;;;;;;;4.57;1.70;;;;;;;;;;6182628;28;20065;-79
2022/06/26 08:03:48;;;;;;;5.68;1.48;;;;;;;;;;6185090;28;20052;-79
2022/06/26 08:06:49;;;;;;;4.30;1.60;;;;;;;;;;6173835;28;20132;-79
2022/06/26 08:09:51;;;;;;;6.07;2.10;;;;;;;;;;6184339;28;20211;-77
2022/06/26 08:12:53;;;;;;;5.00;1.70;;;;;;;;;;6181783;28;20051;-78
2022/06/26 08:15:57;;;;;;;3.30;1.70;;;;;;;;;;6181861;28;20066;-79
2022/06/26 08:18:58;;;;;;;4.97;1.90;;;;;;;;;;6184862;28;20242;-79
2022/06/26 08:22:03;;;;;;;3.58;1.65;;;;;;;;;;6187520;28;20055;-79
2022/06/26 08:25:05;;;;;;;7.30;2.05;;;;;;;;;;6181119;28;20047;-79
2022/06/26 08:28:08;;;;;;;4.00;1.77;;;;;;;;;;6180261;28;20360;-79
2022/06/26 08:31:11;;;;;;;5.18;1.55;;;;;;;;;;6176551;28;20054;-79
2022/06/26 08:34:12;;;;;;;4.97;2.05;;;;;;;;;;6162835;28;20054;-79
2022/06/26 08:37:15;;;;;;;1.92;1.60;;;;;;;;;;6176089;28;20051;-79
2022/06/26 08:40:17;;;;;;;;;;;;;;;;;;6186543;28;20125;-79
2022/06/26 08:43:22;;;;;;;3.55;1.50;;;;;;;;;;6183215;28;19925;-78
2022/06/26 08:46:25;;;;;;;5.80;1.70;;;;;;;;;;6180854;28;20058;-80
2022/06/26 08:49:26;;;;;;;4.03;1.88;;;;;;;;;;6180149;28;20109;-80
2022/06/26 08:52:31;;;;;;;4.10;1.73;;;;;;;;;;6179743;28;20046;-81
2022/06/26 08:55:32;;;;;;;3.28;1.70;;;;;;;;;;6178511;28;20097;-77
2022/06/26 08:58:34;;;;;;;3.40;1.60;;;;;;;;;;6180703;28;20101;-80
2022/06/26 09:01:38;;;;;;;2.10;1.20;;;;;;;;;;6173690;28;20051;-78
2022/06/26 09:04:40;;;;;;;2.65;1.58;;;;;;;;;;6160335;28;20354;-77
2022/06/26 09:07:46;;;;;;;5.13;1.80;;;;;;;;;;6183157;28;20326;-78
2022/06/26 09:10:48;;;;;;;2.78;1.42;;;;;;;;;;6184622;28;20113;-78
2022/06/26 09:13:53;;;;;;;4.47;1.60;;;;;;;;;;6184290;28;20058;-80
2022/06/26 09:16:56;;;;;;;3.67;1.42;;;;;;;;;;6183018;28;20054;-80
2022/06/26 09:19:58;;;;;;;3.65;1.67;;;;;;;;;;6182477;28;20059;-80
2022/06/26 09:23:01;;;;;;;3.13;1.60;;;;;;;;;;6180055;28;20056;-80
2022/06/26 09:26:03;;;;;;;3.05;1.63;;;;;;;;;;6181566;28;20051;-78
2022/06/26 09:29:10;;;;;;;5.22;1.55;;;;;;;;;;6182362;28;20082;-78
2022/06/26 09:32:15;;;;;;;3.83;1.63;;;;;;;;;;6181097;28;20426;-79
2022/06/26 09:35:22;;;;;;;7.05;1.60;;;;;;;;;;6184879;28;20061;-78
2022/06/26 09:38:26;;;;;;;4.93;1.80;;;;;;;;;;6192064;28;20097;-78
2022/06/26 09:41:32;;;;;;;4.15;1.75;;;;;;;;;;6186564;28;20050;-79
2022/06/26 09:44:43;;;;;;;3.85;1.48;;;;;;;;;;6186478;28;20058;-78
2022/06/26 09:47:47;;;;;;;7.23;2.10;;;;;;;;;;6189048;28;20341;-79
2022/06/26 09:50:49;;;;;;;5.35;1.73;;;;;;;;;;6183482;28;20481;-79
2022/06/26 09:53:51;;;;;;;3.45;1.70;;;;;;;;;;6187114;28;20051;-78
2022/06/26 09:56:53;;;;;;;;;;;;;;;;;;6184701;28;20102;-77
2022/06/26 09:59:57;;;;;;;3.75;1.58;;;;;;;;;;6186257;28;19964;-77
2022/06/26 10:06:26;;;;;;;2.33;1.55;;;;;;;;;;6186359;28;20326;-79
2022/06/26 10:09:28;;;;;;;4.03;1.63;;;;;;;;;;6185410;28;20043;-79
2022/06/26 10:12:30;;;;;;;3.80;1.60;;;;;;;;;;6187126;28;20090;-80
2022/06/26 10:15:34;;;;;;;3.25;1.70;;;;;;;;;;6187392;28;20054;-80
2022/06/26 10:18:47;;;;;;;2.42;1.48;;;;;;;;;;6166659;28;20086;-80
2022/06/26 10:21:49;;;;;;;3.00;1.55;;;;;;;;;;6160102;28;20106;-79
2022/06/26 10:24:53;;;;;;;4.38;1.75;;;;;;;;;;6164770;28;20063;-80
2022/06/26 10:27:54;;;;;;;3.72;1.80;;;;;;;;;;6162335;28;20263;-80
2022/06/26 10:31:07;;;;;;;2.28;1.65;;;;;;;;;;6185457;28;20042;-79
2022/06/26 10:34:15;;;;;;;3.17;1.45;;;;;;;;;;6183404;28;20055;-80
2022/06/26 10:37:18;;;;;;;3.60;1.42;;;;;;;;;;6190614;28;20249;-79
2022/06/26 10:43:49;;;;;;;3.53;1.80;;;;;;;;;;6189938;28;20046;-80
2022/06/26 10:46:56;;;;;;;3.25;1.67;;;;;;;;;;6184768;28;20050;-79
2022/06/26 10:49:59;;;;;;;4.07;1.85;;;;;;;;;;6185175;28;20042;-80
2022/06/26 10:53:22;;;;;;;3.40;1.95;;;;;;;;;;6168999;28;20054;-79
2022/06/26 10:56:23;;;;;;;;;;;;;;;;;;6188262;28;20051;-79
2022/06/26 10:59:25;;;;;;;4.65;2.28;;;;;;;;;;6176031;28;19918;-79
2022/06/26 11:02:27;;;;;;;5.10;1.83;;;;;;;;;;6159482;28;20085;-79
2022/06/26 11:05:29;;;;;;;;;;;;;;;;;;6162215;28;20055;-79
2022/06/26 11:08:33;;;;;;;5.97;2.05;;;;;;;;;;6181731;28;19917;-80
2022/06/26 11:11:35;;;;;;;3.92;2.05;;;;;;;;;;6183795;28;20050;-80
2022/06/26 11:14:37;;;;;;;;;;;;;;;;;;6184857;28;20085;-79
2022/06/26 11:17:38;;;;;;;3.60;1.77;;;;;;;;;;6183245;28;19922;-78
2022/06/26 11:20:49;;;;;;;4.80;2.75;;;;;;;;;;6185132;28;20472;-81
2022/06/26 11:23:51;;;;;;;3.08;1.85;;;;;;;;;;6187792;28;20062;-80
2022/06/26 11:26:54;;;;;;;7.00;2.42;;;;;;;;;;6182199;28;20042;-79
2022/06/26 11:29:56;;;;;;;8.38;3.03;;;;;;;;;;6185289;28;20051;-82
2022/06/26 11:32:58;;;;;;;;;;;;;;;;;;6187418;28;20061;-83
2022/06/26 11:36:04;;;;;;;;;;;;;;;;;;6184450;28;19949;-80
2022/06/26 11:39:06;;;;;;;12.38;8.43;;;;;;;;;;6184217;28;19993;-82
2022/06/26 11:42:17;;;;;;;65.97;39.53;;;;;;;;;;6185614;28;20058;-89
2022/06/26 11:45:21;;;;;;;23.90;16.83;;;;;;;;;;6186077;28;20110;-90
2022/06/26 11:48:22;;;;;;;25.15;16.08;;;;;;;;;;6186592;28;20054;-80
2022/06/26 11:51:26;;;;;;;8.85;3.60;;;;;;;;;;6182298;28;20089;-84
2022/06/26 11:54:27;;;;;;;9.25;7.38;;;;;;;;;;6184075;28;20058;-84
2022/06/26 11:57:29;;;;;;;5.22;2.70;;;;;;;;;;6183729;28;20068;-83
2022/06/26 12:00:31;;;;;;;6.40;2.08;;;;;;;;;;6180528;28;20047;-78
2022/06/26 12:03:33;;;;;;;6.45;2.65;;;;;;;;;;6182607;28;20054;-78
2022/06/26 12:06:39;;;;;;;5.10;2.20;;;;;;;;;;6180913;28;20050;-78
2022/06/26 12:09:41;;;;;;;5.72;1.85;;;;;;;;;;6183489;28;20109;-78
2022/06/26 12:12:49;;;;;;;4.47;2.05;;;;;;;;;;6183649;28;20105;-78
2022/06/26 12:15:51;;;;;;;7.18;2.15;;;;;;;;;;6183222;28;20058;-79
2022/06/26 12:18:53;;;;;;;;;;;;;;;;;;6185892;28;20042;-78
2022/06/26 12:21:56;;;;;;;9.47;2.63;;;;;;;;;;6184682;28;19922;-76
2022/06/26 12:24:59;;;;;;;6.40;2.28;;;;;;;;;;6183904;28;20050;-76
2022/06/26 12:28:01;;;;;;;8.38;2.22;;;;;;;;;;6183886;28;20062;-76
2022/06/26 12:31:03;;;;;;;9.25;1.98;;;;;;;;;;6180787;28;20074;-77
2022/06/26 12:34:05;;;;;;;;;;;;;;;;;;6184120;28;20330;-77
2022/06/26 12:37:08;;;;;;;5.85;2.30;;;;;;;;;;6180932;28;20252;-77
2022/06/26 12:40:11;;;;;;;3.35;2.03;;;;;;;;;;6185251;28;20109;-85
2022/06/26 12:43:12;;;;;;;3.83;2.50;;;;;;;;;;6185368;28;20360;-76
2022/06/26 12:46:14;;;;;;;4.85;1.88;;;;;;;;;;6186816;28;20046;-76
2022/06/26 12:49:17;;;;;;;7.13;2.00;;;;;;;;;;6179349;28;20047;-77
2022/06/26 12:52:20;;;;;;;;;;;;;;;;;;6181959;28;20054;-77
2022/06/26 12:55:21;;;;;;;6.15;2.20;;;;;;;;;;6182750;28;19917;-78
2022/06/26 12:58:23;;;;;;;6.15;1.88;;;;;;;;;;6178309;28;20058;-76
2022/06/26 13:01:25;;;;;;;7.55;2.30;;;;;;;;;;6182215;28;20055;-76
2022/06/26 13:04:26;;;;;;;5.97;1.90;;;;;;;;;;6182043;28;20050;-76
2022/06/26 13:07:29;;;;;;;5.32;2.15;;;;;;;;;;6180429;28;20054;-77
2022/06/26 13:10:31;;;;;;;4.70;2.00;;;;;;;;;;6182635;28;20051;-77
2022/06/26 13:13:33;;;;;;;4.20;2.00;;;;;;;;;;6167756;28;20042;-77
2022/06/26 13:16:35;;;;;;;8.27;2.20;;;;;;;;;;6183085;28;20106;-76
2022/06/26 13:19:36;;;;;;;5.32;1.80;;;;;;;;;;6182632;28;20053;-77
2022/06/26 13:22:39;;;;;;;6.35;2.30;;;;;;;;;;6183191;28;20055;-77
2022/06/26 13:25:41;;;;;;;3.92;2.00;;;;;;;;;;6183947;28;20085;-77
2022/06/26 13:28:43;;;;;;;4.45;2.05;;;;;;;;;;6182446;28;20055;-77
2022/06/26 13:31:45;;;;;;;7.10;2.28;;;;;;;;;;6187379;28;20385;-77
2022/06/26 13:34:46;;;;;;;5.30;2.03;;;;;;;;;;6186173;28;20082;-77
2022/06/26 13:37:49;;;;;;;7.45;2.10;;;;;;;;;;6184969;28;20070;-76
2022/06/26 13:40:51;;;;;;;6.57;2.20;;;;;;;;;;6178499;28;20111;-79
2022/06/26 13:43:53;;;;;;;6.18;2.78;;;;;;;;;;6184733;28;20068;-77
2022/06/26 13:46:55;;;;;;;10.45;4.57;;;;;;;;;;6181494;28;20039;-78
2022/06/26 13:49:57;;;;;;;6.85;4.50;;;;;;;;;;6181740;28;20063;-77
2022/06/26 13:53:00;;;;;;;6.28;2.08;;;;;;;;;;6181326;28;20046;-80
2022/06/26 13:56:02;;;;;;;9.57;2.38;;;;;;;;;;6184323;28;20051;-80
2022/06/26 13:59:03;;;;;;;6.03;2.05;;;;;;;;;;6176320;28;20051;-79
2022/06/26 14:02:05;;;;;;;;;;;;;;;;;;6165158;28;20121;-79
2022/06/26 14:05:07;;;;;;;4.35;2.00;;;;;;;;;;6178481;28;19918;-80
2022/06/26 14:08:10;;;;;;;5.38;2.42;;;;;;;;;;6181924;28;20054;-79
2022/06/26 14:11:12;;;;;;;8.05;2.33;;;;;;;;;;6185259;28;20059;-80
2022/06/26 14:14:14;;;;;;;7.28;2.38;;;;;;;;;;6184581;28;20046;-80
2022/06/26 14:17:15;;;;;;;9.60;3.25;;;;;;;;;;6184968;28;20047;-80
2022/06/26 14:20:17;;;;;;;5.63;2.10;;;;;;;;;;6185308;28;20062;-78
2022/06/26 14:26:40;;;;;;;6.43;2.28;;;;;;;;;;6185703;28;20043;-79
2022/06/26 14:29:41;;;;;;;3.88;1.80;;;;;;;;;;6186968;28;20051;-78
2022/06/26 14:32:43;;;;;;;5.43;2.00;;;;;;;;;;6184245;28;20113;-78
2022/06/26 14:35:45;;;;;;;9.95;1.92;;;;;;;;;;6185363;28;20070;-79
2022/06/26 14:38:48;;;;;;;7.20;2.17;;;;;;;;;;6186864;28;20051;-81
2022/06/26 14:41:50;;;;;;;4.50;2.03;;;;;;;;;;6187468;28;20058;-81
2022/06/26 14:44:51;;;;;;;5.18;1.95;;;;;;;;;;6185801;28;20055;-82
2022/06/26 14:47:53;;;;;;;8.05;1.80;;;;;;;;;;6180751;28;20058;-82
2022/06/26 14:50:55;;;;;;;5.47;1.95;;;;;;;;;;6187157;28;20069;-82
2022/06/26 14:53:58;;;;;;;7.18;1.90;;;;;;;;;;6182529;28;20074;-81
2022/06/26 14:57:00;;;;;;;4.22;1.90;;;;;;;;;;6182142;28;20078;-82
2022/06/26 15:00:02;;;;;;;6.55;1.98;;;;;;;;;;6186234;28;20055;-83
2022/06/26 15:03:04;;;;;;;4.88;2.20;;;;;;;;;;6185609;28;20054;-83
2022/06/26 15:06:05;;;;;;;4.75;1.80;;;;;;;;;;6184857;28;20061;-83
2022/06/26 15:09:08;;;;;;;6.07;1.87;;;;;;;;;;6185836;28;20113;-81
2022/06/26 15:12:10;;;;;;;4.95;2.08;;;;;;;;;;6189348;28;20911;-83
2022/06/26 15:15:14;;;;;;;6.93;2.00;;;;;;;;;;6186404;28;20062;-81
2022/06/26 15:18:16;;;;;;;2.70;1.67;;;;;;;;;;6183171;28;20161;-82
2022/06/26 15:21:17;;;;;;;6.97;1.95;;;;;;;;;;6184942;28;20084;-82
2022/06/26 15:24:20;;;;;;;5.20;1.88;;;;;;;;;;6188129;28;20062;-82
2022/06/26 15:27:22;;;;;;;8.30;2.15;;;;;;;;;;6184516;28;20043;-82
2022/06/26 15:30:26;;;;;;;8.00;2.13;;;;;;;;;;6187137;28;20080;-82
2022/06/26 15:33:27;;;;;;;6.30;1.98;;;;;;;;;;6186740;28;20442;-82
2022/06/26 15:36:29;;;;;;;3.73;2.07;;;;;;;;;;6184578;28;20062;-82
2022/06/26 15:39:32;;;;;;;4.93;1.97;;;;;;;;;;6184617;28;20058;-82
2022/06/26 15:42:34;;;;;;;5.60;2.17;;;;;;;;;;6184040;28;20241;-82
2022/06/26 15:45:35;;;;;;;7.53;2.20;;;;;;;;;;6186208;28;20113;-81
2022/06/26 15:48:37;;;;;;;5.20;1.87;;;;;;;;;;6184393;28;20074;-82
2022/06/26 15:51:39;;;;;;;8.80;2.58;;;;;;;;;;6183478;28;20465;-82
2022/06/26 15:54:42;;;;;;;7.20;2.23;;;;;;;;;;6185195;28;20051;-80
2022/06/26 15:57:44;;;;;;;6.57;2.38;;;;;;;;;;6180863;28;20388;-87
2022/06/26 16:00:46;;;;;;;7.53;2.75;;;;;;;;;;6182785;28;20077;-81
2022/06/26 16:03:47;;;;;;;9.35;2.38;;;;;;;;;;6179215;28;20054;-81
2022/06/26 16:06:49;;;;;;;7.13;2.45;;;;;;;;;;6165528;28;20055;-80
2022/06/26 16:09:52;;;;;;;5.68;2.20;;;;;;;;;;6161906;28;20150;-81
2022/06/26 16:12:54;;;;;;;5.90;2.45;;;;;;;;;;6157659;28;20055;-80
2022/06/26 16:15:55;;;;;;;7.07;2.30;;;;;;;;;;6159004;28;20061;-83
2022/06/26 16:18:57;;;;;;;7.35;2.33;;;;;;;;;;6179398;28;20085;-83
2022/06/26 16:28:38;;;;;;;5.13;2.33;;;;;;;;;;6182019;28;20043;-80
2022/06/26 16:31:40;;;;;;;8.93;2.50;;;;;;;;;;6179110;28;20057;-82
2022/06/26 16:34:42;;;;;;;6.47;2.03;;;;;;;;;;6181941;28;20754;-78
2022/06/26 16:37:43;;;;;;;8.75;2.45;;;;;;;;;;6180828;28;20050;-78
2022/06/26 16:40:46;;;;;;;8.68;2.58;;;;;;;;;;6182538;28;20364;-78
2022/06/26 16:43:48;;;;;;;6.80;1.98;;;;;;;;;;6185168;28;20054;-76
2022/06/26 16:46:50;;;;;;;7.23;2.20;;;;;;;;;;6180534;28;20067;-78
2022/06/26 16:49:51;;;;;;;8.30;2.30;;;;;;;;;;6179881;28;20051;-78
2022/06/26 16:52:53;;;;;;;5.63;2.30;;;;;;;;;;6180045;28;20039;-80
2022/06/26 16:55:57;;;;;;;8.73;2.42;;;;;;;;;;6181902;28;20058;-78
2022/06/26 16:58:59;;;;;;;8.60;2.00;;;;;;;;;;6183037;28;20110;-78
2022/06/26 17:02:00;;;;;;;7.70;2.67;;;;;;;;;;6182643;28;20097;-78
2022/06/26 17:05:02;;;;;;;6.57;2.57;;;;;;;;;;6181974;28;20054;-78
2022/06/26 17:08:04;;;;;;;8.48;2.67;;;;;;;;;;6181591;28;20051;-79
2022/06/26 17:11:12;;;;;;;6.78;1.92;;;;;;;;;;6183322;28;20059;-78
2022/06/26 17:14:13;;;;;;;6.68;2.38;;;;;;;;;;6183200;28;20103;-77
2022/06/26 17:17:15;;;;;;;11.90;6.13;;;;;;;;;;6177178;28;20273;-80
2022/06/26 17:20:17;;;;;;;64.80;39.00;;;;;;;;;;6180305;28;20470;-79
2022/06/26 17:23:19;;;;;;;96.33;54.37;;;;;;;;;;6183469;28;20058;-79
2022/06/26 17:26:22;;;;;;;15.55;6.82;;;;;;;;;;6183388;28;20101;-79
2022/06/26 17:29:23;;;;;;;57.22;32.67;;;;;;;;;;6181160;28;20046;-78
2022/06/26 17:32:25;;;;;;;8.80;4.13;;;;;;;;;;6181535;28;20051;-78
2022/06/26 17:35:27;;;;;;;48.90;29.13;;;;;;;;;;6180698;28;20110;-77
2022/06/26 17:38:28;;;;;;;23.87;13.93;;;;;;;;;;6182083;28;20354;-78
2022/06/26 17:41:32;;;;;;;69.40;40.67;;;;;;;;;;6183257;28;20195;-78
2022/06/26 17:44:34;;;;;;;15.30;5.32;;;;;;;;;;6180597;28;20419;-79
2022/06/26 17:47:47;;;;;;;16.42;8.15;;;;;;;;;;6183847;28;20046;-78
2022/06/26 17:50:49;;;;;;;10.98;3.15;;;;;;;;;;6185315;28;20119;-79
2022/06/26 17:53:51;;;;;;;97.07;51.27;;;;;;;;;;6182116;28;20059;-79
2022/06/26 17:56:54;;;;;;;62.67;41.23;;;;;;;;;;6181281;28;20065;-79
2022/06/26 17:59:56;;;;;;;18.27;8.65;;;;;;;;;;6186684;28;20070;-80
2022/06/26 18:02:59;;;;;;;17.60;6.30;;;;;;;;;;6188151;28;20054;-81
2022/06/26 18:06:01;;;;;;;12.88;3.63;;;;;;;;;;6186949;28;20098;-79
2022/06/26 18:09:04;;;;;;;10.73;2.53;;;;;;;;;;6187437;28;20047;-78
2022/06/26 18:12:08;;;;;;;6.85;2.67;;;;;;;;;;6186658;28;20346;-77
2022/06/26 18:15:12;;;;;;;9.50;2.83;;;;;;;;;;6184338;28;20054;-77
2022/06/26 18:18:14;;;;;;;9.05;3.30;;;;;;;;;;6185365;28;20051;-78
2022/06/26 18:21:16;;;;;;;8.63;3.22;;;;;;;;;;6187711;28;20047;-77
2022/06/26 18:24:18;;;;;;;9.82;3.53;;;;;;;;;;6186807;28;20115;-78
2022/06/26 18:27:21;;;;;;;10.98;4.15;;;;;;;;;;6186210;28;20063;-78
2022/06/26 18:30:24;;;;;;;8.65;3.78;;;;;;;;;;6185683;28;20054;-78
2022/06/26 18:33:25;;;;;;;14.48;3.50;;;;;;;;;;6189857;28;20055;-79
2022/06/26 18:36:27;;;;;;;31.08;17.48;;;;;;;;;;6187494;28;20204;-77
2022/06/26 18:39:29;;;;;;;42.73;30.90;;;;;;;;;;6188112;28;20107;-80
2022/06/26 18:42:34;;;;;;;26.17;18.47;;;;;;;;;;6190160;28;20329;-82